Time;durP1;ratioP1;P1;durP2;ratioP2;P2;SDS_P1;SDS_P2;PMS_P1;PMS_P2;Temp;Humidity;BMP_temperature;BMP_pressure;BME280_temperature;BME280_humidity;BME280_pressure;Samples;Min_cycle;Max_cycle;Signal;HPM_P1;HPM_P2
2023/06/20 00:00:30;;;;;;;6.77;5.73;;;20.60;93.70;;;;;;5115431;28;20500;-68
2023/06/20 00:02:57;;;;;;;6.20;4.70;;;20.60;94.20;;;;;;5115173;28;20984;-69
2023/06/20 00:05:25;;;;;;;6.90;5.50;;;20.50;94.20;;;;;;5115741;28;20475;-68
2023/06/20 00:07:54;;;;;;;6.80;5.77;;;20.50;94.20;;;;;;5114969;28;20498;-68
2023/06/20 00:10:21;;;;;;;6.10;5.40;;;20.40;94.60;;;;;;5114991;28;20440;-68
2023/06/20 00:12:48;;;;;;;7.40;6.00;;;20.40;94.80;;;;;;5115349;28;20473;-68
2023/06/20 00:15:15;;;;;;;7.17;5.60;;;20.40;94.10;;;;;;5114868;28;20436;-68
2023/06/20 00:17:42;;;;;;;8.43;6.47;;;20.30;93.90;;;;;;5114900;28;20914;-68
2023/06/20 00:20:10;;;;;;;6.60;5.50;;;20.30;94.30;;;;;;5115119;28;20444;-68
2023/06/20 00:22:38;;;;;;;7.73;6.93;;;20.20;94.40;;;;;;5115222;28;20521;-68
2023/06/20 00:25:06;;;;;;;8.73;6.33;;;20.20;94.20;;;;;;5114683;28;20497;-68
2023/06/20 00:27:33;;;;;;;7.57;5.87;;;20.20;94.60;;;;;;5115007;28;20476;-68
2023/06/20 00:30:00;;;;;;;7.80;5.90;;;20.10;94.90;;;;;;5114859;28;20467;-68
2023/06/20 00:32:27;;;;;;;6.30;5.57;;;20.10;94.80;;;;;;5114826;28;20501;-68
2023/06/20 00:34:58;;;;;;;8.07;6.20;;;20.10;94.80;;;;;;5114483;28;20466;-68
2023/06/20 00:37:25;;;;;;;8.37;6.50;;;20.10;94.60;;;;;;5114523;28;20432;-68
2023/06/20 00:39:54;;;;;;;7.73;6.17;;;20.00;95.00;;;;;;5114650;28;20951;-68
2023/06/20 00:42:24;;;;;;;7.30;6.60;;;20.00;95.10;;;;;;5114641;28;20886;-68
2023/06/20 00:44:51;;;;;;;8.03;7.10;;;20.00;95.00;;;;;;5114627;28;20833;-68
2023/06/20 00:47:19;;;;;;;7.73;6.13;;;19.90;95.40;;;;;;5114609;28;20494;-68
2023/06/20 00:49:47;;;;;;;8.07;6.53;;;19.90;95.70;;;;;;5114256;28;20437;-68
2023/06/20 00:52:17;;;;;;;8.10;7.20;;;19.90;96.00;;;;;;5114488;28;20441;-69
2023/06/20 00:54:46;;;;;;;8.27;7.30;;;19.90;95.90;;;;;;5114563;28;20458;-68
2023/06/20 00:57:16;;;;;;;6.77;6.07;;;19.90;95.60;;;;;;5114760;28;20806;-68
2023/06/20 00:59:44;;;;;;;7.30;6.37;;;19.80;95.20;;;;;;5114017;28;20440;-68
2023/06/20 01:02:12;;;;;;;7.07;6.30;;;19.70;95.70;;;;;;5114400;28;20825;-68
2023/06/20 01:04:40;;;;;;;7.47;6.77;;;19.70;96.00;;;;;;5114491;28;20464;-68
2023/06/20 01:07:18;;;;;;;7.87;7.17;;;19.70;96.30;;;;;;5114382;28;20442;-68
2023/06/20 01:09:52;;;;;;;9.27;6.43;;;19.70;96.40;;;;;;5114397;28;20552;-68
2023/06/20 01:12:30;;;;;;;7.97;7.17;;;19.60;96.40;;;;;;5113997;28;20471;-68
2023/06/20 01:15:04;;;;;;;8.73;7.40;;;19.70;96.50;;;;;;5113909;28;20431;-68
2023/06/20 01:17:41;;;;;;;7.70;6.30;;;19.60;96.10;;;;;;5114442;28;20493;-68
2023/06/20 01:20:15;;;;;;;8.13;6.67;;;19.60;96.70;;;;;;5113528;28;20455;-68
2023/06/20 01:23:03;;;;;;;7.60;6.83;;;19.60;96.30;;;;;;5114159;28;20460;-68
2023/06/20 01:25:37;;;;;;;8.10;6.83;;;19.60;96.30;;;;;;5113914;28;20468;-68
2023/06/20 01:28:09;;;;;;;13.23;6.50;;;19.50;96.20;;;;;;5114112;28;20459;-68
2023/06/20 01:30:42;;;;;;;8.33;6.80;;;19.50;96.10;;;;;;5113702;28;20489;-68
2023/06/20 01:33:11;;;;;;;8.97;6.63;;;19.50;96.20;;;;;;5114156;28;20832;-68
2023/06/20 01:35:39;;;;;;;6.90;6.20;;;19.50;96.00;;;;;;5113609;28;20483;-68
2023/06/20 01:38:13;;;;;;;8.70;6.30;;;19.50;96.00;;;;;;5113890;28;20796;-69
2023/06/20 01:40:42;;;;;;;7.80;7.00;;;19.50;96.20;;;;;;5113793;28;20473;-68
2023/06/20 01:43:14;;;;;;;6.63;5.93;;;19.40;96.60;;;;;;5113491;28;20471;-68
2023/06/20 01:45:45;;;;;;;8.20;5.63;;;19.40;97.00;;;;;;5113453;28;20430;-68
2023/06/20 01:48:14;;;;;;;7.07;5.30;;;19.40;97.10;;;;;;5113859;28;20430;-68
2023/06/20 01:50:42;;;;;;;7.17;5.40;;;19.50;96.60;;;;;;5113729;28;20836;-68
2023/06/20 01:53:13;;;;;;;8.10;6.27;;;19.40;96.70;;;;;;5113718;28;20467;-68
2023/06/20 01:55:41;;;;;;;6.37;5.20;;;19.40;96.60;;;;;;5113651;28;20420;-68
2023/06/20 01:58:10;;;;;;;8.07;6.00;;;19.40;96.60;;;;;;5113686;28;20527;-68
2023/06/20 02:00:38;;;;;;;7.53;6.40;;;19.40;97.20;;;;;;5113611;28;20432;-68
2023/06/20 02:03:06;;;;;;;8.10;6.53;;;19.40;97.00;;;;;;5113252;28;20980;-68
2023/06/20 02:05:35;;;;;;;10.37;6.20;;;19.40;97.00;;;;;;5113324;28;20641;-70
2023/06/20 02:08:03;;;;;;;6.00;4.80;;;19.40;96.70;;;;;;5113259;28;20482;-68
2023/06/20 02:10:33;;;;;;;5.83;4.37;;;19.40;95.80;;;;;;5113531;28;20440;-68
2023/06/20 02:13:00;;;;;;;7.50;4.73;;;19.40;95.80;;;;;;5113202;28;20439;-71
2023/06/20 02:15:29;;;;;;;5.60;4.83;;;19.50;95.00;;;;;;5113438;28;20468;-68
2023/06/20 02:17:56;;;;;;;8.87;4.80;;;19.50;94.90;;;;;;5113318;28;20918;-68
2023/06/20 02:20:24;;;;;;;6.93;4.87;;;19.60;95.20;;;;;;5113103;28;20541;-68
2023/06/20 02:22:55;;;;;;;7.13;4.30;;;19.60;95.10;;;;;;5113106;28;20495;-69
2023/06/20 02:25:26;;;;;;;4.40;3.93;;;19.60;95.40;;;;;;5113163;28;20436;-69
2023/06/20 02:27:56;;;;;;;5.20;4.63;;;19.70;95.40;;;;;;5113455;28;20421;-68
2023/06/20 02:30:26;;;;;;;7.83;5.30;;;19.70;95.20;;;;;;5113356;28;20432;-68
2023/06/20 02:32:56;;;;;;;5.40;4.53;;;19.90;95.20;;;;;;5116950;28;20517;-69
2023/06/20 02:35:24;;;;;;;5.07;4.23;;;19.90;95.70;;;;;;5117280;28;20464;-69
2023/06/20 02:37:54;;;;;;;6.63;5.33;;;19.90;95.80;;;;;;5117155;28;20436;-69
2023/06/20 02:40:24;;;;;;;7.50;4.83;;;20.00;95.80;;;;;;5117315;28;20464;-68
2023/06/20 02:42:51;;;;;;;5.23;4.33;;;20.00;95.70;;;;;;5116911;28;20468;-68
2023/06/20 02:45:20;;;;;;;5.20;4.20;;;20.00;95.90;;;;;;5116608;28;20437;-68
2023/06/20 02:47:57;;;;;;;7.17;5.17;;;20.10;96.10;;;;;;5116640;28;20437;-68
2023/06/20 02:50:29;;;;;;;5.13;4.20;;;20.10;96.10;;;;;;5117100;28;20468;-68
2023/06/20 02:53:07;;;;;;;5.17;4.33;;;20.10;96.10;;;;;;5116880;28;20493;-69
2023/06/20 02:55:38;;;;;;;4.30;3.73;;;20.10;95.20;;;;;;5116919;28;20460;-68
2023/06/20 02:58:11;;;;;;;7.60;4.60;;;20.10;95.20;;;;;;5116824;28;20497;-68
2023/06/20 03:00:42;;;;;;;5.03;4.20;;;20.20;95.60;;;;;;5116705;28;20435;-69
2023/06/20 03:03:12;;;;;;;9.63;4.93;;;20.20;95.80;;;;;;5116740;28;20510;-68
2023/06/20 03:05:43;;;;;;;6.10;4.90;;;20.30;95.70;;;;;;5116878;28;20429;-68
2023/06/20 03:08:13;;;;;;;6.50;3.80;;;20.20;95.10;;;;;;5116256;28;20467;-68
2023/06/20 03:10:41;;;;;;;9.00;4.57;;;20.20;94.80;;;;;;5116220;28;20464;-68
2023/06/20 03:13:09;;;;;;;6.90;4.70;;;20.30;94.80;;;;;;5116167;28;20475;-69
2023/06/20 03:15:36;;;;;;;6.50;4.27;;;20.30;94.80;;;;;;5116080;28;20437;-68
2023/06/20 03:18:04;;;;;;;6.27;5.13;;;20.40;94.60;;;;;;5116204;28;20479;-68
2023/06/20 03:20:31;;;;;;;5.33;4.70;;;20.40;94.70;;;;;;5115890;28;20937;-68
2023/06/20 03:22:58;;;;;;;6.20;4.97;;;20.40;94.60;;;;;;5116029;28;20496;-68
2023/06/20 03:25:25;;;;;;;6.87;5.20;;;20.30;94.70;;;;;;5116384;28;20437;-68
2023/06/20 03:27:52;;;;;;;5.53;4.20;;;20.30;95.00;;;;;;5115982;28;20464;-68
2023/06/20 03:30:20;;;;;;;6.10;4.10;;;20.30;94.90;;;;;;5115831;28;20472;-69
2023/06/20 03:32:47;;;;;;;7.60;4.50;;;20.30;95.00;;;;;;5116039;28;20487;-68
2023/06/20 03:35:16;;;;;;;7.50;4.40;;;20.40;95.30;;;;;;5115696;28;20495;-68
2023/06/20 03:37:43;;;;;;;5.93;4.37;;;20.40;95.40;;;;;;5115740;28;20428;-68
2023/06/20 03:40:11;;;;;;;5.47;4.23;;;20.40;95.70;;;;;;5115687;28;20472;-68
2023/06/20 03:42:38;;;;;;;7.63;5.63;;;20.40;95.60;;;;;;5115105;28;20516;-68
2023/06/20 03:45:06;;;;;;;4.80;4.17;;;20.50;95.50;;;;;;5115365;28;20496;-69
2023/06/20 03:47:33;;;;;;;6.20;5.37;;;20.40;95.50;;;;;;5115578;28;20914;-68
2023/06/20 03:50:00;;;;;;;5.90;4.70;;;20.50;95.60;;;;;;5115513;28;20990;-68
2023/06/20 03:52:28;;;;;;;5.10;4.20;;;20.50;95.50;;;;;;5115550;28;20441;-68
2023/06/20 03:54:55;;;;;;;6.03;4.00;;;20.50;95.50;;;;;;5115508;28;20962;-68
2023/06/20 03:57:22;;;;;;;5.50;4.57;;;20.60;95.10;;;;;;5115894;28;20492;-68
2023/06/20 03:59:49;;;;;;;6.40;5.60;;;20.60;95.10;;;;;;5115575;28;20482;-68
2023/06/20 04:02:16;;;;;;;5.87;4.40;;;20.70;94.70;;;;;;5115920;28;20526;-68
2023/06/20 04:04:49;;;;;;;5.47;4.33;;;20.60;94.60;;;;;;5115953;28;20472;-69
2023/06/20 04:07:18;;;;;;;5.77;4.50;;;20.60;94.60;;;;;;5116036;28;20425;-68
2023/06/20 04:09:49;;;;;;;7.20;4.40;;;20.70;94.60;;;;;;5115809;28;20452;-68
2023/06/20 04:12:16;;;;;;;6.20;5.10;;;20.70;94.50;;;;;;5115514;28;20941;-69
2023/06/20 04:14:43;;;;;;;5.17;4.37;;;20.70;94.40;;;;;;5115316;28;20486;-69
2023/06/20 04:17:10;;;;;;;5.40;4.50;;;20.70;94.30;;;;;;5115252;28;20438;-68
2023/06/20 04:19:37;;;;;;;5.83;4.70;;;20.80;94.10;;;;;;5115552;28;20474;-69
2023/06/20 04:22:04;;;;;;;5.50;4.70;;;20.80;94.20;;;;;;5115084;28;20592;-68
2023/06/20 04:24:31;;;;;;;7.90;5.00;;;20.80;94.20;;;;;;5115385;28;20493;-69
2023/06/20 04:27:00;;;;;;;6.23;4.83;;;20.80;94.20;;;;;;5115426;28;20516;-68
2023/06/20 04:29:29;;;;;;;6.70;5.13;;;20.90;94.10;;;;;;5115380;28;20456;-68
2023/06/20 04:31:56;;;;;;;6.00;5.30;;;20.90;93.90;;;;;;5115337;28;20539;-69
2023/06/20 04:34:25;;;;;;;5.73;4.30;;;20.90;94.20;;;;;;5115347;28;20440;-70
2023/06/20 04:36:52;;;;;;;5.90;4.57;;;20.90;94.50;;;;;;5114965;28;20475;-69
2023/06/20 04:39:19;;;;;;;6.27;4.63;;;20.90;94.40;;;;;;5115225;28;20479;-68
2023/06/20 04:41:46;;;;;;;6.90;5.33;;;20.90;94.30;;;;;;5115147;28;20785;-69
2023/06/20 04:44:15;;;;;;;6.83;4.33;;;20.90;95.10;;;;;;5115094;28;20436;-69
2023/06/20 04:46:42;;;;;;;6.60;4.90;;;20.90;95.60;;;;;;5110962;28;20432;-69
2023/06/20 04:49:09;;;;;;;6.80;5.10;;;21.00;95.30;;;;;;5053986;28;20528;-70
2023/06/20 04:51:41;;;;;;;6.17;4.70;;;21.00;94.60;;;;;;5092925;28;21046;-69
2023/06/20 04:54:11;;;;;;;5.47;4.80;;;21.00;94.50;;;;;;5097266;28;20429;-69
2023/06/20 04:56:40;;;;;;;7.97;4.63;;;21.00;94.20;;;;;;5099592;28;20430;-68
2023/06/20 04:59:07;;;;;;;6.20;4.63;;;21.00;92.90;;;;;;5093806;28;20503;-69
2023/06/20 05:01:37;;;;;;;5.20;4.60;;;21.10;93.00;;;;;;5113903;28;20433;-69
2023/06/20 05:04:05;;;;;;;5.73;4.87;;;21.20;93.00;;;;;;5112881;28;20433;-68
2023/06/20 05:06:32;;;;;;;4.47;3.90;;;21.20;92.90;;;;;;5113491;28;20441;-69
2023/06/20 05:09:00;;;;;;;7.67;5.50;;;21.20;92.70;;;;;;5104129;28;20434;-69
2023/06/20 05:11:27;;;;;;;6.17;5.43;;;21.20;92.90;;;;;;5093733;28;20438;-68
2023/06/20 05:13:55;;;;;;;7.13;6.07;;;21.30;92.90;;;;;;5093415;28;20445;-69
2023/06/20 05:16:23;;;;;;;4.87;4.37;;;21.40;93.10;;;;;;5095610;28;20942;-69
2023/06/20 05:18:53;;;;;;;5.47;4.87;;;21.40;93.30;;;;;;5096928;28;20450;-68
2023/06/20 05:21:26;;;;;;;7.33;5.07;;;21.40;92.90;;;;;;5093151;28;20539;-68
2023/06/20 05:23:53;;;;;;;6.33;4.50;;;21.40;92.60;;;;;;5103395;28;20469;-69
2023/06/20 05:26:21;;;;;;;6.23;4.60;;;21.30;92.70;;;;;;5094276;28;20449;-71
2023/06/20 05:28:48;;;;;;;7.90;4.60;;;21.30;92.60;;;;;;5096399;28;20475;-68
2023/06/20 05:31:15;;;;;;;5.17;4.67;;;21.40;92.80;;;;;;5093023;28;20465;-68
2023/06/20 05:33:42;;;;;;;8.53;4.27;;;21.40;93.00;;;;;;5093422;28;20475;-69
2023/06/20 05:36:10;;;;;;;6.00;4.60;;;21.50;93.50;;;;;;5094071;28;20492;-68
2023/06/20 05:38:37;;;;;;;6.10;5.50;;;21.60;93.20;;;;;;5093261;28;20480;-68
2023/06/20 05:41:06;;;;;;;5.30;4.60;;;21.60;93.10;;;;;;5092957;28;20442;-68
2023/06/20 05:43:33;;;;;;;6.00;5.07;;;21.60;92.60;;;;;;5093201;28;20538;-69
2023/06/20 05:46:00;;;;;;;7.07;5.40;;;21.60;92.70;;;;;;5093174;28;20449;-69
2023/06/20 05:48:32;;;;;;;6.73;4.60;;;21.50;92.60;;;;;;5093031;28;20916;-69
2023/06/20 05:51:00;;;;;;;6.93;4.83;;;21.60;92.80;;;;;;5093251;28;20454;-69
2023/06/20 05:53:28;;;;;;;6.13;4.43;;;21.60;92.70;;;;;;5093116;28;20848;-69
2023/06/20 05:55:55;;;;;;;5.10;4.20;;;21.60;92.80;;;;;;5093225;28;20516;-69
2023/06/20 05:58:22;;;;;;;6.67;5.40;;;21.60;92.80;;;;;;5093013;28;20440;-69
2023/06/20 06:00:50;;;;;;;6.20;5.20;;;21.60;92.90;;;;;;5092413;28;20450;-69
2023/06/20 06:03:18;;;;;;;7.63;5.13;;;21.60;93.10;;;;;;5092892;28;20480;-69
2023/06/20 06:05:59;;;;;;;9.13;5.23;;;21.70;93.10;;;;;;5093247;28;20437;-70
2023/06/20 06:08:28;;;;;;;5.50;4.80;;;21.70;93.20;;;;;;5110297;28;20921;-69
2023/06/20 06:11:00;;;;;;;5.73;5.13;;;21.70;93.70;;;;;;5117238;28;20444;-69
2023/06/20 06:13:30;;;;;;;6.47;4.90;;;21.70;94.10;;;;;;5117406;28;20430;-70
2023/06/20 06:15:58;;;;;;;6.53;4.67;;;21.80;94.00;;;;;;5116924;28;20440;-69
2023/06/20 06:18:32;;;;;;;5.70;4.80;;;22.00;93.90;;;;;;5116736;28;20464;-69
2023/06/20 06:21:00;;;;;;;5.07;4.00;;;22.10;93.60;;;;;;5113158;28;20461;-70
2023/06/20 06:23:28;;;;;;;5.20;4.50;;;22.20;93.60;;;;;;5107803;28;20894;-69
2023/06/20 06:26:00;;;;;;;7.33;5.07;;;22.20;93.60;;;;;;5110472;28;20469;-69
2023/06/20 06:28:28;;;;;;;7.30;5.20;;;22.40;92.70;;;;;;5116473;28;20428;-69
2023/06/20 06:30:55;;;;;;;4.93;4.43;;;22.50;92.00;;;;;;5115340;28;20457;-69
2023/06/20 06:33:33;;;;;;;4.93;4.43;;;22.60;91.60;;;;;;5109643;28;20495;-69
2023/06/20 06:36:01;;;;;;;8.33;4.67;;;22.60;91.50;;;;;;5107704;28;20428;-69
2023/06/20 06:38:29;;;;;;;6.57;5.60;;;22.70;91.30;;;;;;5116746;28;20441;-69
2023/06/20 06:40:56;;;;;;;6.27;5.60;;;22.70;91.20;;;;;;5098016;28;20873;-69
2023/06/20 06:43:28;;;;;;;5.83;5.27;;;22.70;91.20;;;;;;5095865;28;20503;-69
2023/06/20 06:45:55;;;;;;;7.13;5.13;;;22.80;91.10;;;;;;5096092;28;20435;-69
2023/06/20 06:48:22;;;;;;;5.37;4.60;;;22.90;89.80;;;;;;5096133;28;20483;-69
2023/06/20 06:50:53;;;;;;;5.60;4.77;;;22.90;89.80;;;;;;5096330;28;20839;-70
2023/06/20 06:53:24;;;;;;;6.10;4.50;;;23.00;89.10;;;;;;5100446;28;20839;-69
2023/06/20 06:55:53;;;;;;;6.57;5.00;;;23.00;89.20;;;;;;5095748;28;20472;-69
2023/06/20 06:58:20;;;;;;;6.83;4.87;;;23.00;88.80;;;;;;5096103;28;20434;-71
2023/06/20 07:00:50;;;;;;;5.40;4.77;;;23.10;88.10;;;;;;5095844;28;20474;-69
2023/06/20 07:03:17;;;;;;;7.07;4.63;;;23.20;88.40;;;;;;5094569;28;20486;-69
2023/06/20 07:05:45;;;;;;;9.10;5.27;;;23.30;88.00;;;;;;5095773;28;20924;-69
2023/06/20 07:08:12;;;;;;;6.17;5.00;;;23.30;86.50;;;;;;5093627;28;20497;-70
2023/06/20 07:10:39;;;;;;;6.97;5.60;;;23.50;85.70;;;;;;5095730;28;20480;-69
2023/06/20 07:13:11;;;;;;;8.20;5.77;;;23.50;83.80;;;;;;5095737;28;20486;-69
2023/06/20 07:15:40;;;;;;;6.10;5.27;;;23.50;84.80;;;;;;5095808;28;20422;-71
2023/06/20 07:18:07;;;;;;;5.30;4.47;;;23.50;85.30;;;;;;5094580;28;20581;-69
2023/06/20 07:20:34;;;;;;;6.40;4.70;;;23.60;83.90;;;;;;5095444;28;20439;-69
2023/06/20 07:23:01;;;;;;;8.53;5.70;;;23.70;83.90;;;;;;5095717;28;20503;-69
2023/06/20 07:25:30;;;;;;;5.83;4.43;;;23.90;84.40;;;;;;5095641;28;20437;-69
2023/06/20 07:27:59;;;;;;;5.97;5.20;;;24.00;83.00;;;;;;5095646;28;20549;-69
2023/06/20 07:30:31;;;;;;;5.30;4.63;;;24.20;81.00;;;;;;5095193;28;20937;-69
2023/06/20 07:32:57;;;;;;;7.60;5.90;;;24.40;80.70;;;;;;5095590;28;20424;-70
2023/06/20 07:35:29;;;;;;;7.23;4.90;;;24.50;78.80;;;;;;5095314;28;20476;-69
2023/06/20 07:37:56;;;;;;;8.47;5.40;;;24.70;76.60;;;;;;5095196;28;20490;-69
2023/06/20 07:40:23;;;;;;;5.53;4.90;;;24.70;76.40;;;;;;5095164;28;20439;-70
2023/06/20 07:42:50;;;;;;;5.97;5.37;;;24.70;77.40;;;;;;5095091;28;20512;-69
2023/06/20 07:45:17;;;;;;;8.40;4.97;;;24.70;74.50;;;;;;5094572;28;20917;-69
2023/06/20 07:47:46;;;;;;;5.00;4.20;;;24.80;73.70;;;;;;5095066;28;20463;-69
2023/06/20 07:50:18;;;;;;;9.17;5.80;;;24.90;74.90;;;;;;5095204;28;20473;-69
2023/06/20 07:52:45;;;;;;;7.00;4.33;;;25.10;74.00;;;;;;5095188;28;20429;-69
2023/06/20 07:55:17;;;;;;;5.93;4.30;;;25.20;72.50;;;;;;5095194;28;20440;-69
2023/06/20 07:57:47;;;;;;;8.00;5.80;;;25.20;72.20;;;;;;5095188;28;20511;-70
2023/06/20 08:00:14;;;;;;;5.27;4.20;;;25.30;71.90;;;;;;5095317;28;20431;-69
2023/06/20 08:02:46;;;;;;;5.17;4.23;;;25.40;70.40;;;;;;5095020;28;20512;-69
2023/06/20 08:05:14;;;;;;;6.43;4.10;;;25.40;68.60;;;;;;5094787;28;20434;-69
2023/06/20 08:07:43;;;;;;;5.63;4.50;;;25.50;69.60;;;;;;5094570;28;20917;-70
2023/06/20 08:10:11;;;;;;;9.33;4.37;;;25.60;66.90;;;;;;5094787;28;20497;-69
2023/06/20 08:12:42;;;;;;;7.40;4.27;;;25.60;66.50;;;;;;5094494;28;20836;-69
2023/06/20 08:15:10;;;;;;;5.57;4.67;;;25.70;67.40;;;;;;5094662;28;20424;-69
2023/06/20 08:17:37;;;;;;;6.13;3.70;;;25.80;65.50;;;;;;5094394;28;20918;-69
2023/06/20 08:20:08;;;;;;;7.10;3.87;;;26.00;64.10;;;;;;5094721;28;20509;-69
2023/06/20 08:22:37;;;;;;;4.90;3.80;;;26.10;64.70;;;;;;5093856;28;20476;-70
2023/06/20 08:25:05;;;;;;;5.97;3.93;;;26.30;62.60;;;;;;5094289;28;21018;-69
2023/06/20 08:27:34;;;;;;;6.63;4.33;;;26.40;63.10;;;;;;5094380;28;20521;-69
2023/06/20 08:30:07;;;;;;;5.17;3.23;;;26.40;63.50;;;;;;5093731;28;20990;-69
2023/06/20 08:32:35;;;;;;;4.20;3.30;;;26.60;63.60;;;;;;5094223;28;20487;-70
2023/06/20 08:35:03;;;;;;;4.40;3.23;;;26.70;61.10;;;;;;5094446;28;20822;-69
2023/06/20 08:37:36;;;;;;;4.97;3.23;;;26.80;61.70;;;;;;5094067;28;20445;-69
2023/06/20 08:40:12;;;;;;;6.30;3.13;;;27.00;59.80;;;;;;5093920;28;20494;-69
2023/06/20 08:42:40;;;;;;;4.50;2.33;;;27.10;60.10;;;;;;5093726;28;20424;-69
2023/06/20 08:45:09;;;;;;;3.03;2.20;;;27.20;59.70;;;;;;5093959;28;20523;-70
2023/06/20 08:47:36;;;;;;;4.20;2.37;;;27.30;54.40;;;;;;5093854;28;20494;-69
2023/06/20 08:50:08;;;;;;;4.73;2.77;;;27.40;54.70;;;;;;5094086;28;20469;-69
2023/06/20 08:52:46;;;;;;;3.43;2.30;;;27.50;55.20;;;;;;5093761;28;20458;-70
2023/06/20 08:55:14;;;;;;;3.47;2.20;;;27.70;54.20;;;;;;5094070;28;20438;-69
2023/06/20 08:57:41;;;;;;;3.40;2.43;;;27.80;53.10;;;;;;5093686;28;20437;-69
2023/06/20 09:00:16;;;;;;;3.60;2.10;;;27.80;52.70;;;;;;5093683;28;20774;-69
2023/06/20 09:02:43;;;;;;;3.37;2.20;;;27.90;52.40;;;;;;5093628;28;20492;-69
2023/06/20 09:05:10;;;;;;;3.93;2.70;;;28.00;51.60;;;;;;5093537;28;20476;-69
2023/06/20 09:07:42;;;;;;;4.00;2.47;;;28.10;51.80;;;;;;5092850;28;20540;-72
2023/06/20 09:10:13;;;;;;;4.60;2.77;;;28.30;51.40;;;;;;5093458;28;20900;-69
2023/06/20 09:12:48;;;;;;;3.43;2.27;;;28.50;49.20;;;;;;5093779;28;20432;-69
2023/06/20 09:15:19;;;;;;;4.03;2.27;;;28.50;49.40;;;;;;5093572;28;20442;-69
2023/06/20 09:17:51;;;;;;;4.50;2.40;;;28.60;48.20;;;;;;5093451;28;20485;-69
2023/06/20 09:20:18;;;;;;;5.60;2.80;;;28.70;49.40;;;;;;5093511;28;20514;-70
2023/06/20 09:22:47;;;;;;;6.97;2.13;;;28.80;49.50;;;;;;5093088;28;20979;-69
2023/06/20 09:25:21;;;;;;;5.00;2.20;;;28.90;47.70;;;;;;5093187;28;20485;-69
2023/06/20 09:27:52;;;;;;;5.93;2.33;;;29.10;47.30;;;;;;5093106;28;20432;-70
2023/06/20 09:30:22;;;;;;;3.37;2.37;;;29.10;46.90;;;;;;5093102;28;20459;-69
2023/06/20 09:32:53;;;;;;;9.83;2.97;;;29.20;45.70;;;;;;5093402;28;20916;-69
2023/06/20 09:35:24;;;;;;;3.90;2.40;;;29.30;46.90;;;;;;5093199;28;20423;-70
2023/06/20 09:37:54;;;;;;;4.47;2.37;;;29.40;46.80;;;;;;5093087;28;20435;-69
2023/06/20 09:40:21;;;;;;;4.33;2.30;;;29.50;45.80;;;;;;5093026;28;20510;-69
2023/06/20 09:42:56;;;;;;;3.80;1.80;;;29.60;45.80;;;;;;5092577;28;20439;-70
2023/06/20 09:45:23;;;;;;;4.00;2.50;;;29.70;45.20;;;;;;5092891;28;20497;-69
2023/06/20 09:47:50;;;;;;;3.33;2.37;;;29.80;43.80;;;;;;5093297;28;20802;-69
2023/06/20 09:50:19;;;;;;;7.00;2.20;;;29.90;44.10;;;;;;5093135;28;20467;-71
2023/06/20 09:52:56;;;;;;;7.80;3.07;;;30.00;43.90;;;;;;5092849;28;20442;-69
2023/06/20 09:55:25;;;;;;;3.90;2.20;;;30.00;42.10;;;;;;5092911;28;20963;-69
2023/06/20 09:58:04;;;;;;;5.93;3.20;;;30.10;41.50;;;;;;5092710;28;20489;-70
2023/06/20 10:00:32;;;;;;;3.93;2.43;;;30.10;42.70;;;;;;5093199;28;20462;-69
2023/06/20 10:03:11;;;;;;;3.40;2.27;;;30.20;42.50;;;;;;5093155;28;20856;-71
2023/06/20 10:05:41;;;;;;;6.83;3.13;;;30.30;41.80;;;;;;5092690;28;20468;-70
2023/06/20 10:08:12;;;;;;;7.10;3.03;;;30.40;42.20;;;;;;5092391;28;20443;-70
2023/06/20 10:10:39;;;;;;;4.67;2.97;;;30.50;41.80;;;;;;5093191;28;20842;-69
2023/06/20 10:13:07;;;;;;;7.10;3.10;;;30.60;42.20;;;;;;5090601;28;20448;-70
2023/06/20 10:15:34;;;;;;;6.30;3.23;;;30.60;42.00;;;;;;5092529;28;20945;-69
2023/06/20 10:18:02;;;;;;;4.33;3.10;;;30.70;41.80;;;;;;5092553;28;20999;-69
2023/06/20 10:20:33;;;;;;;5.50;3.47;;;30.90;42.70;;;;;;5092989;28;20436;-69
2023/06/20 10:23:04;;;;;;;6.13;4.20;;;31.00;40.10;;;;;;5052735;28;20430;-69
2023/06/20 10:25:33;;;;;;;5.10;3.23;;;31.00;39.80;;;;;;5052601;28;20499;-74
2023/06/20 10:28:11;;;;;;;4.63;3.40;;;31.10;40.00;;;;;;5052348;28;20480;-69
2023/06/20 10:31:00;;;;;;;7.43;2.90;;;31.10;39.40;;;;;;5052211;28;20425;-69
2023/06/20 10:33:28;;;;;;;5.83;3.60;;;31.20;39.10;;;;;;5052247;28;20445;-69
2023/06/20 10:35:57;;;;;;;4.23;2.63;;;31.30;41.40;;;;;;5052519;28;20437;-69
2023/06/20 10:38:24;;;;;;;4.70;2.70;;;31.40;42.20;;;;;;5052612;28;20465;-69
2023/06/20 10:43:57;;;;;;;7.93;3.00;;;31.50;42.00;;;;;;5088770;27;20828;-68
2023/06/20 10:46:30;;;;;;;4.30;2.83;;;31.90;39.70;;;;;;5069127;28;20424;-68
2023/06/20 10:48:57;;;;;;;4.60;2.20;;;31.90;40.10;;;;;;5068409;28;20440;-68
2023/06/20 10:51:24;;;;;;;7.20;2.70;;;32.00;39.60;;;;;;5072876;28;20838;-68
2023/06/20 10:53:51;;;;;;;9.07;2.30;;;32.10;39.80;;;;;;5068632;28;20464;-69
2023/06/20 10:56:25;;;;;;;4.70;2.77;;;32.20;38.60;;;;;;5068701;28;20487;-68
2023/06/20 10:58:52;;;;;;;5.60;2.60;;;32.30;38.30;;;;;;5068314;28;20490;-68
2023/06/20 11:01:25;;;;;;;8.27;3.53;;;32.30;38.30;;;;;;5068037;28;20537;-69
2023/06/20 11:03:53;;;;;;;4.07;3.07;;;32.40;37.60;;;;;;5072565;28;20432;-68
2023/06/20 11:06:20;;;;;;;4.60;3.23;;;32.50;35.40;;;;;;5068604;28;20472;-68
2023/06/20 11:08:47;;;;;;;6.10;3.50;;;32.50;37.20;;;;;;5068416;28;20471;-69
2023/06/20 11:11:14;;;;;;;3.93;2.83;;;32.60;38.40;;;;;;5064594;28;20883;-68
2023/06/20 11:13:45;;;;;;;4.17;3.13;;;32.60;37.60;;;;;;5071425;28;20440;-68
2023/06/20 11:16:18;;;;;;;4.63;3.10;;;32.70;38.40;;;;;;5066844;28;20440;-68
2023/06/20 11:18:47;;;;;;;7.90;3.67;;;32.80;36.30;;;;;;5066745;28;20432;-71
2023/06/20 11:21:16;;;;;;;5.90;3.30;;;32.90;36.70;;;;;;5065456;28;20456;-68
2023/06/20 11:23:43;;;;;;;5.70;3.60;;;32.90;36.90;;;;;;5067472;28;20491;-68
2023/06/20 11:26:10;;;;;;;4.97;3.30;;;33.00;36.20;;;;;;5068342;28;20464;-69
2023/06/20 11:28:37;;;;;;;5.00;3.40;;;33.10;36.10;;;;;;5070152;28;20945;-68
2023/06/20 11:31:10;;;;;;;6.73;3.13;;;33.20;37.50;;;;;;5066666;28;20971;-68
2023/06/20 11:33:37;;;;;;;5.73;3.70;;;33.30;36.30;;;;;;5073212;28;20428;-70
2023/06/20 11:36:06;;;;;;;5.77;3.80;;;33.30;36.20;;;;;;5067561;28;20432;-68
2023/06/20 11:38:36;;;;;;;8.03;3.57;;;33.30;34.60;;;;;;5069707;28;20483;-69
2023/06/20 11:41:06;;;;;;;5.83;3.20;;;33.40;35.90;;;;;;5068710;28;20433;-70
2023/06/20 11:43:37;;;;;;;5.77;3.53;;;33.50;35.60;;;;;;5067613;28;20488;-68
2023/06/20 11:46:05;;;;;;;4.70;3.00;;;33.50;33.60;;;;;;5070487;28;20472;-68
2023/06/20 11:48:32;;;;;;;8.00;3.87;;;33.50;33.80;;;;;;5069998;28;20471;-69
2023/06/20 11:51:00;;;;;;;4.80;3.50;;;33.60;34.10;;;;;;5069361;28;20926;-68
2023/06/20 11:53:31;;;;;;;6.93;3.00;;;33.60;34.20;;;;;;5061370;28;21008;-68
2023/06/20 11:56:02;;;;;;;7.63;3.77;;;33.70;33.10;;;;;;5055872;28;20491;-68
2023/06/20 11:58:36;;;;;;;7.70;3.53;;;33.70;33.00;;;;;;5054283;28;20520;-68
2023/06/20 12:01:09;;;;;;;8.47;3.23;;;33.70;33.80;;;;;;5053912;28;20492;-68
2023/06/20 12:03:37;;;;;;;5.13;3.37;;;33.80;33.30;;;;;;5053555;28;20464;-69
2023/06/20 12:06:22;;;;;;;7.03;3.27;;;33.80;32.10;;;;;;5050680;28;20429;-68
2023/06/20 12:08:55;;;;;;;6.70;3.70;;;33.80;32.20;;;;;;5057435;28;20467;-70
2023/06/20 12:11:22;;;;;;;5.80;3.70;;;33.80;31.30;;;;;;5050276;28;20523;-68
2023/06/20 12:13:49;;;;;;;6.30;3.43;;;33.70;32.20;;;;;;5055685;28;20465;-68
2023/06/20 12:16:16;;;;;;;6.73;4.10;;;33.80;33.30;;;;;;5053541;28;20438;-68
2023/06/20 12:18:43;;;;;;;4.73;3.70;;;33.80;31.90;;;;;;5053012;28;20507;-68
2023/06/20 12:21:15;;;;;;;5.63;3.20;;;33.80;32.60;;;;;;5051780;28;20460;-68
2023/06/20 12:23:42;;;;;;;4.57;3.40;;;33.80;32.70;;;;;;5056800;28;20501;-68
2023/06/20 12:26:11;;;;;;;5.40;3.13;;;33.80;32.20;;;;;;5052689;28;20758;-69
2023/06/20 12:28:40;;;;;;;5.10;3.30;;;33.80;31.80;;;;;;5054935;28;20965;-68
2023/06/20 12:31:08;;;;;;;5.80;3.90;;;33.80;32.10;;;;;;5055552;28;20487;-70
2023/06/20 12:33:35;;;;;;;5.40;3.83;;;33.80;32.20;;;;;;5055574;28;20447;-69
2023/06/20 12:36:02;;;;;;;5.90;4.10;;;33.80;31.60;;;;;;5056410;28;20420;-68
2023/06/20 12:38:30;;;;;;;7.37;3.57;;;33.80;30.60;;;;;;5053061;28;20495;-68
2023/06/20 12:40:57;;;;;;;6.20;3.50;;;33.80;31.30;;;;;;5056080;28;20433;-68
2023/06/20 12:43:26;;;;;;;6.10;3.77;;;33.80;33.50;;;;;;5052677;28;20485;-69
2023/06/20 12:45:53;;;;;;;5.53;3.40;;;33.80;32.80;;;;;;5050081;28;20457;-68
2023/06/20 12:48:20;;;;;;;4.40;2.87;;;33.80;31.70;;;;;;5058473;28;20430;-68
2023/06/20 12:50:47;;;;;;;6.20;3.70;;;33.80;32.00;;;;;;5055682;28;20487;-68
2023/06/20 12:53:16;;;;;;;6.90;3.60;;;33.80;31.80;;;;;;5051815;28;20433;-69
2023/06/20 12:55:43;;;;;;;8.37;4.20;;;33.80;31.80;;;;;;5052657;28;20829;-69
2023/06/20 12:58:12;;;;;;;13.63;4.13;;;33.80;31.80;;;;;;5053139;28;20460;-68